sensor_id;sensor_type;location;lat;lon;timestamp;pressure;altitude;pressure_sealevel;temperature;humidity
32761;BME280;19126;47.472;7.850;2023-04-26T00:01:36;96632.88;;;3.69;78.44
32761;BME280;19126;47.472;7.850;2023-04-26T00:04:03;96632.34;;;3.65;79.06
32761;BME280;19126;47.472;7.850;2023-04-26T00:06:31;96627.41;;;3.62;78.16
32761;BME280;19126;47.472;7.850;2023-04-26T00:08:58;96625.75;;;3.61;76.38
32761;BME280;19126;47.472;7.850;2023-04-26T00:11:25;96634.09;;;3.65;75.95
32761;BME280;19126;47.472;7.850;2023-04-26T00:13:53;96635.75;;;3.66;75.47
32761;BME280;19126;47.472;7.850;2023-04-26T00:16:20;96635.06;;;3.64;73.86
32761;BME280;19126;47.472;7.850;2023-04-26T00:18:49;96630.97;;;3.61;71.99
32761;BME280;19126;47.472;7.850;2023-04-26T00:21:16;96631.38;;;3.66;71.96
32761;BME280;19126;47.472;7.850;2023-04-26T00:23:43;96635.75;;;3.66;70.09
32761;BME280;19126;47.472;7.850;2023-04-26T00:26:10;96635.31;;;3.61;69.31
32761;BME280;19126;47.472;7.850;2023-04-26T00:28:38;96634.50;;;3.60;68.83
32761;BME280;19126;47.472;7.850;2023-04-26T00:31:05;96638.22;;;3.67;67.53
32761;BME280;19126;47.472;7.850;2023-04-26T00:33:32;96635.13;;;3.74;66.83
32761;BME280;19126;47.472;7.850;2023-04-26T00:36:01;96629.75;;;3.65;65.69
32761;BME280;19126;47.472;7.850;2023-04-26T00:38:28;96634.69;;;3.69;63.95
32761;BME280;19126;47.472;7.850;2023-04-26T00:40:56;96624.81;;;3.62;63.24
32761;BME280;19126;47.472;7.850;2023-04-26T00:43:23;96624.13;;;3.60;62.45
32761;BME280;19126;47.472;7.850;2023-04-26T00:45:51;96622.22;;;3.62;62.18
32761;BME280;19126;47.472;7.850;2023-04-26T00:48:19;96622.06;;;3.64;62.28
32761;BME280;19126;47.472;7.850;2023-04-26T00:50:46;96624.94;;;3.61;63.03
32761;BME280;19126;47.472;7.850;2023-04-26T00:53:16;96623.00;;;3.53;62.09
32761;BME280;19126;47.472;7.850;2023-04-26T00:55:44;96619.81;;;3.49;62.70
32761;BME280;19126;47.472;7.850;2023-04-26T00:58:11;96623.88;;;3.42;63.25
32761;BME280;19126;47.472;7.850;2023-04-26T01:00:38;96618.84;;;3.41;63.83
32761;BME280;19126;47.472;7.850;2023-04-26T01:03:06;96614.28;;;3.33;65.27
32761;BME280;19126;47.472;7.850;2023-04-26T01:05:33;96618.47;;;3.24;66.04
32761;BME280;19126;47.472;7.850;2023-04-26T01:08:01;96618.72;;;3.21;66.87
32761;BME280;19126;47.472;7.850;2023-04-26T01:10:32;96621.00;;;3.14;66.40
32761;BME280;19126;47.472;7.850;2023-04-26T01:13:01;96617.59;;;3.14;65.89
32761;BME280;19126;47.472;7.850;2023-04-26T01:15:29;96621.16;;;3.13;66.11
32761;BME280;19126;47.472;7.850;2023-04-26T01:17:58;96629.19;;;3.10;66.66
32761;BME280;19126;47.472;7.850;2023-04-26T01:20:26;96616.31;;;3.08;66.83
32761;BME280;19126;47.472;7.850;2023-04-26T01:22:55;96628.16;;;3.01;67.08
32761;BME280;19126;47.472;7.850;2023-04-26T01:25:22;96620.38;;;3.01;66.78
32761;BME280;19126;47.472;7.850;2023-04-26T01:27:49;96617.41;;;3.05;67.10
32761;BME280;19126;47.472;7.850;2023-04-26T01:30:17;96619.06;;;3.06;66.15
32761;BME280;19126;47.472;7.850;2023-04-26T01:32:44;96620.06;;;3.15;66.22
32761;BME280;19126;47.472;7.850;2023-04-26T01:35:11;96617.97;;;3.09;67.02
32761;BME280;19126;47.472;7.850;2023-04-26T01:37:38;96618.47;;;3.03;67.47
32761;BME280;19126;47.472;7.850;2023-04-26T01:40:09;96612.72;;;2.99;67.72
32761;BME280;19126;47.472;7.850;2023-04-26T01:42:36;96614.75;;;2.96;66.69
32761;BME280;19126;47.472;7.850;2023-04-26T01:45:05;96616.78;;;2.92;65.89
32761;BME280;19126;47.472;7.850;2023-04-26T01:47:32;96606.97;;;2.96;65.72
32761;BME280;19126;47.472;7.850;2023-04-26T01:50:00;96611.09;;;2.98;64.89
32761;BME280;19126;47.472;7.850;2023-04-26T01:52:27;96602.47;;;2.98;65.08
32761;BME280;19126;47.472;7.850;2023-04-26T01:54:54;96608.75;;;2.95;64.86
32761;BME280;19126;47.472;7.850;2023-04-26T01:57:23;96585.91;;;2.89;64.17
32761;BME280;19126;47.472;7.850;2023-04-26T01:59:51;96593.88;;;2.97;64.63
32761;BME280;19126;47.472;7.850;2023-04-26T02:02:20;96589.63;;;2.96;65.53
32761;BME280;19126;47.472;7.850;2023-04-26T02:04:48;96592.34;;;2.95;65.58
32761;BME280;19126;47.472;7.850;2023-04-26T02:07:15;96599.38;;;2.83;66.40
32761;BME280;19126;47.472;7.850;2023-04-26T02:09:42;96607.53;;;2.78;67.29
32761;BME280;19126;47.472;7.850;2023-04-26T02:12:11;96598.94;;;2.77;67.24
32761;BME280;19126;47.472;7.850;2023-04-26T02:14:40;96595.19;;;2.70;69.05
32761;BME280;19126;47.472;7.850;2023-04-26T02:17:07;96601.59;;;2.66;69.39
32761;BME280;19126;47.472;7.850;2023-04-26T02:19:36;96597.34;;;2.65;69.01
32761;BME280;19126;47.472;7.850;2023-04-26T02:22:04;96602.88;;;2.60;68.40
32761;BME280;19126;47.472;7.850;2023-04-26T02:24:32;96596.56;;;2.53;68.65
32761;BME280;19126;47.472;7.850;2023-04-26T02:26:59;96598.56;;;2.49;67.10
32761;BME280;19126;47.472;7.850;2023-04-26T02:29:29;96597.59;;;2.51;66.52
32761;BME280;19126;47.472;7.850;2023-04-26T02:31:58;96602.28;;;2.57;65.06
32761;BME280;19126;47.472;7.850;2023-04-26T02:34:25;96605.03;;;2.55;63.70
32761;BME280;19126;47.472;7.850;2023-04-26T02:36:52;96600.53;;;2.57;62.86
32761;BME280;19126;47.472;7.850;2023-04-26T02:39:20;96603.13;;;2.57;62.99
32761;BME280;19126;47.472;7.850;2023-04-26T02:41:47;96596.91;;;2.48;63.15
32761;BME280;19126;47.472;7.850;2023-04-26T02:44:15;96602.09;;;2.48;62.72
32761;BME280;19126;47.472;7.850;2023-04-26T02:46:42;96596.22;;;2.46;63.26
32761;BME280;19126;47.472;7.850;2023-04-26T02:49:10;96594.31;;;2.48;63.22
32761;BME280;19126;47.472;7.850;2023-04-26T02:51:38;96593.31;;;2.40;66.12
32761;BME280;19126;47.472;7.850;2023-04-26T02:54:05;96594.06;;;2.30;67.39
32761;BME280;19126;47.472;7.850;2023-04-26T02:56:33;96594.16;;;2.29;67.20
32761;BME280;19126;47.472;7.850;2023-04-26T02:59:00;96599.03;;;2.22;67.77
32761;BME280;19126;47.472;7.850;2023-04-26T03:01:27;96595.59;;;2.22;67.69
32761;BME280;19126;47.472;7.850;2023-04-26T03:03:54;96598.31;;;2.20;67.97
32761;BME280;19126;47.472;7.850;2023-04-26T03:06:23;96594.81;;;2.10;68.28
32761;BME280;19126;47.472;7.850;2023-04-26T03:08:50;96590.44;;;2.10;69.19
32761;BME280;19126;47.472;7.850;2023-04-26T03:11:17;96588.56;;;2.12;70.32
32761;BME280;19126;47.472;7.850;2023-04-26T03:13:45;96584.44;;;2.10;70.75
32761;BME280;19126;47.472;7.850;2023-04-26T03:16:12;96586.69;;;2.03;70.98
32761;BME280;19126;47.472;7.850;2023-04-26T03:18:39;96590.22;;;2.02;70.68
32761;BME280;19126;47.472;7.850;2023-04-26T03:21:06;96582.84;;;1.97;69.91
32761;BME280;19126;47.472;7.850;2023-04-26T03:23:35;96584.59;;;1.97;69.91
32761;BME280;19126;47.472;7.850;2023-04-26T03:26:03;96587.56;;;1.92;69.53
32761;BME280;19126;47.472;7.850;2023-04-26T03:28:30;96582.97;;;1.84;68.70
32761;BME280;19126;47.472;7.850;2023-04-26T03:30:57;96583.66;;;1.86;68.40
32761;BME280;19126;47.472;7.850;2023-04-26T03:33:24;96582.97;;;1.84;69.02
32761;BME280;19126;47.472;7.850;2023-04-26T03:35:52;96586.16;;;1.77;69.10
32761;BME280;19126;47.472;7.850;2023-04-26T03:38:19;96571.81;;;1.72;68.36
32761;BME280;19126;47.472;7.850;2023-04-26T03:40:48;96582.97;;;1.73;68.99
32761;BME280;19126;47.472;7.850;2023-04-26T03:43:16;96578.16;;;1.68;69.08
32761;BME280;19126;47.472;7.850;2023-04-26T03:45:46;96578.41;;;1.65;68.94
32761;BME280;19126;47.472;7.850;2023-04-26T03:48:15;96581.00;;;1.65;68.75
32761;BME280;19126;47.472;7.850;2023-04-26T03:50:42;96586.66;;;1.59;69.38
32761;BME280;19126;47.472;7.850;2023-04-26T03:53:11;96577.00;;;1.61;67.11
32761;BME280;19126;47.472;7.850;2023-04-26T03:55:38;96573.81;;;1.69;66.24
32761;BME280;19126;47.472;7.850;2023-04-26T03:58:08;96574.41;;;1.72;64.95
32761;BME280;19126;47.472;7.850;2023-04-26T04:00:36;96569.91;;;1.74;63.36
32761;BME280;19126;47.472;7.850;2023-04-26T04:03:05;96575.22;;;1.73;62.94
32761;BME280;19126;47.472;7.850;2023-04-26T04:05:32;96569.31;;;1.71;62.70
32761;BME280;19126;47.472;7.850;2023-04-26T04:07:59;96570.28;;;1.70;62.31
32761;BME280;19126;47.472;7.850;2023-04-26T04:10:28;96566.88;;;1.69;61.70
32761;BME280;19126;47.472;7.850;2023-04-26T04:12:56;96568.63;;;1.69;60.58
32761;BME280;19126;47.472;7.850;2023-04-26T04:15:25;96561.91;;;1.78;58.91
32761;BME280;19126;47.472;7.850;2023-04-26T04:17:55;96571.34;;;1.79;58.07
32761;BME280;19126;47.472;7.850;2023-04-26T04:20:22;96574.38;;;1.84;56.21
32761;BME280;19126;47.472;7.850;2023-04-26T04:22:49;96568.22;;;1.96;55.00
32761;BME280;19126;47.472;7.850;2023-04-26T04:25:17;96575.53;;;1.91;54.62
32761;BME280;19126;47.472;7.850;2023-04-26T04:27:47;96576.94;;;1.95;52.66
32761;BME280;19126;47.472;7.850;2023-04-26T04:30:15;96571.78;;;1.95;51.21
32761;BME280;19126;47.472;7.850;2023-04-26T04:32:44;96574.91;;;1.99;49.54
32761;BME280;19126;47.472;7.850;2023-04-26T04:35:11;96575.06;;;1.97;48.44
32761;BME280;19126;47.472;7.850;2023-04-26T04:37:39;96575.53;;;2.02;46.36
32761;BME280;19126;47.472;7.850;2023-04-26T04:40:08;96575.72;;;2.11;45.34
32761;BME280;19126;47.472;7.850;2023-04-26T04:42:36;96569.59;;;2.12;44.02
32761;BME280;19126;47.472;7.850;2023-04-26T04:45:04;96579.47;;;2.18;42.06
32761;BME280;19126;47.472;7.850;2023-04-26T04:47:32;96586.31;;;2.19;41.02
32761;BME280;19126;47.472;7.850;2023-04-26T04:50:05;96573.91;;;2.23;39.45
32761;BME280;19126;47.472;7.850;2023-04-26T04:52:33;96582.84;;;2.30;38.01
32761;BME280;19126;47.472;7.850;2023-04-26T04:55:00;96578.34;;;2.32;36.88
32761;BME280;19126;47.472;7.850;2023-04-26T04:57:29;96580.34;;;2.40;35.50
32761;BME280;19126;47.472;7.850;2023-04-26T04:59:56;96581.75;;;2.44;34.49
32761;BME280;19126;47.472;7.850;2023-04-26T05:02:23;96587.38;;;2.49;33.64
32761;BME280;19126;47.472;7.850;2023-04-26T05:04:51;96593.13;;;2.53;32.75
32761;BME280;19126;47.472;7.850;2023-04-26T05:07:21;96594.53;;;2.57;30.50
32761;BME280;19126;47.472;7.850;2023-04-26T05:09:48;96593.31;;;2.61;30.12
32761;BME280;19126;47.472;7.850;2023-04-26T05:12:16;96595.31;;;2.69;29.33
32761;BME280;19126;47.472;7.850;2023-04-26T05:14:43;96596.59;;;2.74;28.49
32761;BME280;19126;47.472;7.850;2023-04-26T05:17:10;96597.47;;;2.85;26.81
32761;BME280;19126;47.472;7.850;2023-04-26T05:19:38;96597.59;;;2.83;27.39
32761;BME280;19126;47.472;7.850;2023-04-26T05:22:05;96600.63;;;2.88;26.38
32761;BME280;19126;47.472;7.850;2023-04-26T05:24:34;96608.16;;;2.91;26.81
32761;BME280;19126;47.472;7.850;2023-04-26T05:27:02;96609.19;;;3.00;27.09
32761;BME280;19126;47.472;7.850;2023-04-26T05:29:32;96608.94;;;3.03;26.74
32761;BME280;19126;47.472;7.850;2023-04-26T05:31:59;96622.84;;;3.02;26.84
32761;BME280;19126;47.472;7.850;2023-04-26T05:34:27;96611.72;;;3.12;26.52
32761;BME280;19126;47.472;7.850;2023-04-26T05:36:54;96617.63;;;3.23;25.29
32761;BME280;19126;47.472;7.850;2023-04-26T05:39:21;96622.63;;;3.36;24.41
32761;BME280;19126;47.472;7.850;2023-04-26T05:41:50;96621.88;;;3.46;25.63
32761;BME280;19126;47.472;7.850;2023-04-26T05:44:17;96623.50;;;3.47;25.30
32761;BME280;19126;47.472;7.850;2023-04-26T05:46:45;96626.97;;;3.57;25.58
32761;BME280;19126;47.472;7.850;2023-04-26T05:49:12;96621.13;;;3.65;24.97
32761;BME280;19126;47.472;7.850;2023-04-26T05:51:40;96624.81;;;3.62;26.45
32761;BME280;19126;47.472;7.850;2023-04-26T05:54:07;96622.31;;;3.61;27.18
32761;BME280;19126;47.472;7.850;2023-04-26T05:56:34;96626.47;;;3.63;27.82
32761;BME280;19126;47.472;7.850;2023-04-26T05:59:03;96632.47;;;3.64;27.92
32761;BME280;19126;47.472;7.850;2023-04-26T06:01:30;96636.59;;;3.66;28.54
32761;BME280;19126;47.472;7.850;2023-04-26T06:03:57;96632.78;;;3.71;29.34
32761;BME280;19126;47.472;7.850;2023-04-26T06:06:25;96637.88;;;3.82;28.74
32761;BME280;19126;47.472;7.850;2023-04-26T06:08:53;96634.44;;;3.81;29.14
32761;BME280;19126;47.472;7.850;2023-04-26T06:11:20;96636.88;;;3.73;29.96
32761;BME280;19126;47.472;7.850;2023-04-26T06:13:47;96636.22;;;3.81;29.21
32761;BME280;19126;47.472;7.850;2023-04-26T06:16:16;96643.63;;;3.86;29.52
32761;BME280;19126;47.472;7.850;2023-04-26T06:18:43;96645.16;;;3.88;29.64
32761;BME280;19126;47.472;7.850;2023-04-26T06:21:11;96636.56;;;3.98;29.30
32761;BME280;19126;47.472;7.850;2023-04-26T06:23:38;96639.06;;;4.09;29.66
32761;BME280;19126;47.472;7.850;2023-04-26T06:26:06;96641.13;;;4.15;30.10
32761;BME280;19126;47.472;7.850;2023-04-26T06:28:33;96645.81;;;4.31;29.17
32761;BME280;19126;47.472;7.850;2023-04-26T06:31:00;96640.50;;;4.52;29.31
32761;BME280;19126;47.472;7.850;2023-04-26T06:33:29;96648.72;;;4.77;29.38
32761;BME280;19126;47.472;7.850;2023-04-26T06:35:58;96643.53;;;4.87;30.74
32761;BME280;19126;47.472;7.850;2023-04-26T06:38:26;96638.03;;;4.90;32.39
32761;BME280;19126;47.472;7.850;2023-04-26T06:40:53;96643.25;;;4.90;35.02
32761;BME280;19126;47.472;7.850;2023-04-26T06:43:20;96632.97;;;4.89;37.20
32761;BME280;19126;47.472;7.850;2023-04-26T06:45:48;96643.91;;;5.02;38.01
32761;BME280;19126;47.472;7.850;2023-04-26T06:48:15;96640.91;;;4.97;42.64
32761;BME280;19126;47.472;7.850;2023-04-26T06:50:44;96635.69;;;5.07;43.96
32761;BME280;19126;47.472;7.850;2023-04-26T06:53:11;96633.63;;;5.10;46.30
32761;BME280;19126;47.472;7.850;2023-04-26T06:55:39;96640.31;;;5.23;45.55
32761;BME280;19126;47.472;7.850;2023-04-26T06:58:06;96632.38;;;5.34;47.55
32761;BME280;19126;47.472;7.850;2023-04-26T07:00:34;96621.94;;;5.34;48.57
32761;BME280;19126;47.472;7.850;2023-04-26T07:03:01;96627.69;;;5.38;50.13
32761;BME280;19126;47.472;7.850;2023-04-26T07:05:28;96634.13;;;5.43;49.77
32761;BME280;19126;47.472;7.850;2023-04-26T07:07:57;96628.47;;;5.58;48.66
32761;BME280;19126;47.472;7.850;2023-04-26T07:10:24;96627.91;;;5.64;48.95
32761;BME280;19126;47.472;7.850;2023-04-26T07:12:52;96628.13;;;5.71;49.56
32761;BME280;19126;47.472;7.850;2023-04-26T07:15:19;96627.81;;;5.84;49.74
32761;BME280;19126;47.472;7.850;2023-04-26T07:17:47;96616.84;;;5.80;52.66
32761;BME280;19126;47.472;7.850;2023-04-26T07:20:14;96615.19;;;5.79;55.53
32761;BME280;19126;47.472;7.850;2023-04-26T07:22:45;96606.59;;;5.97;54.62
32761;BME280;19126;47.472;7.850;2023-04-26T07:25:13;96600.53;;;6.06;53.89
32761;BME280;19126;47.472;7.850;2023-04-26T07:27:41;96611.22;;;6.13;58.02
32761;BME280;19126;47.472;7.850;2023-04-26T07:30:09;96611.75;;;6.16;60.71
32761;BME280;19126;47.472;7.850;2023-04-26T07:32:37;96601.84;;;6.20;60.81
32761;BME280;19126;47.472;7.850;2023-04-26T07:35:06;96607.75;;;6.22;61.95
32761;BME280;19126;47.472;7.850;2023-04-26T07:37:35;96605.19;;;6.12;65.94
32761;BME280;19126;47.472;7.850;2023-04-26T07:40:03;96612.28;;;6.20;64.50
32761;BME280;19126;47.472;7.850;2023-04-26T07:42:34;96607.56;;;6.24;62.88
32761;BME280;19126;47.472;7.850;2023-04-26T07:45:02;96607.44;;;6.25;62.50
32761;BME280;19126;47.472;7.850;2023-04-26T07:47:29;96613.25;;;6.37;61.22
32761;BME280;19126;47.472;7.850;2023-04-26T07:49:57;96602.38;;;6.42;61.47
32761;BME280;19126;47.472;7.850;2023-04-26T07:52:24;96608.56;;;6.59;61.00
32761;BME280;19126;47.472;7.850;2023-04-26T07:54:52;96606.34;;;6.64;61.70
32761;BME280;19126;47.472;7.850;2023-04-26T07:57:19;96605.00;;;6.78;61.52
32761;BME280;19126;47.472;7.850;2023-04-26T07:59:48;96605.91;;;6.87;62.61
32761;BME280;19126;47.472;7.850;2023-04-26T08:02:15;96601.72;;;6.94;64.38
32761;BME280;19126;47.472;7.850;2023-04-26T08:04:47;96597.75;;;7.16;63.55
32761;BME280;19126;47.472;7.850;2023-04-26T08:07:17;96599.00;;;7.30;64.87
32761;BME280;19126;47.472;7.850;2023-04-26T08:09:44;96600.53;;;7.41;68.56
32761;BME280;19126;47.472;7.850;2023-04-26T08:12:12;96601.09;;;7.53;70.93
32761;BME280;19126;47.472;7.850;2023-04-26T08:14:40;96598.38;;;7.71;73.80
32761;BME280;19126;47.472;7.850;2023-04-26T08:17:09;96591.16;;;8.00;76.86
32761;BME280;19126;47.472;7.850;2023-04-26T08:19:36;96599.28;;;8.40;81.71
32761;BME280;19126;47.472;7.850;2023-04-26T08:22:04;96596.09;;;8.87;83.19
32761;BME280;19126;47.472;7.850;2023-04-26T08:24:33;96604.09;;;8.94;91.56
32761;BME280;19126;47.472;7.850;2023-04-26T08:27:00;96601.44;;;9.19;98.07
32761;BME280;19126;47.472;7.850;2023-04-26T08:29:28;96598.03;;;9.18;100.00
32761;BME280;19126;47.472;7.850;2023-04-26T08:31:56;96600.97;;;9.32;100.00
32761;BME280;19126;47.472;7.850;2023-04-26T08:34:25;96600.22;;;9.63;100.00
32761;BME280;19126;47.472;7.850;2023-04-26T08:36:53;96595.69;;;9.96;100.00
32761;BME280;19126;47.472;7.850;2023-04-26T08:39:20;96595.56;;;10.21;100.00
32761;BME280;19126;47.472;7.850;2023-04-26T08:41:52;96594.97;;;10.43;100.00
32761;BME280;19126;47.472;7.850;2023-04-26T08:44:22;96592.19;;;10.44;100.00
32761;BME280;19126;47.472;7.850;2023-04-26T08:46:56;96593.53;;;10.40;100.00
32761;BME280;19126;47.472;7.850;2023-04-26T08:49:38;96592.28;;;10.51;100.00
32761;BME280;19126;47.472;7.850;2023-04-26T08:52:10;96587.72;;;10.45;100.00
32761;BME280;19126;47.472;7.850;2023-04-26T08:54:38;96591.03;;;10.70;100.00
32761;BME280;19126;47.472;7.850;2023-04-26T08:57:07;96589.53;;;10.91;100.00
32761;BME280;19126;47.472;7.850;2023-04-26T08:59:36;96594.34;;;11.25;100.00
32761;BME280;19126;47.472;7.850;2023-04-26T09:02:05;96600.97;;;11.36;100.00
32761;BME280;19126;47.472;7.850;2023-04-26T09:04:34;96594.78;;;11.29;100.00
32761;BME280;19126;47.472;7.850;2023-04-26T09:07:03;96602.66;;;11.14;100.00
32761;BME280;19126;47.472;7.850;2023-04-26T09:09:35;96604.03;;;11.10;100.00
32761;BME280;19126;47.472;7.850;2023-04-26T09:12:07;96601.03;;;11.13;100.00
32761;BME280;19126;47.472;7.850;2023-04-26T09:14:34;96606.81;;;11.08;100.00
32761;BME280;19126;47.472;7.850;2023-04-26T09:17:02;96606.44;;;10.96;100.00
32761;BME280;19126;47.472;7.850;2023-04-26T09:19:39;96604.81;;;11.10;100.00
32761;BME280;19126;47.472;7.850;2023-04-26T09:22:07;96600.03;;;11.14;100.00
32761;BME280;19126;47.472;7.850;2023-04-26T09:24:49;96597.69;;;11.34;100.00
32761;BME280;19126;47.472;7.850;2023-04-26T09:27:17;96599.16;;;11.37;100.00
32761;BME280;19126;47.472;7.850;2023-04-26T09:29:58;96593.19;;;11.43;100.00
32761;BME280;19126;47.472;7.850;2023-04-26T09:32:27;96597.63;;;11.42;100.00
32761;BME280;19126;47.472;7.850;2023-04-26T09:35:22;96587.22;;;11.79;100.00
32761;BME280;19126;47.472;7.850;2023-04-26T09:37:52;96595.88;;;12.25;100.00
32761;BME280;19126;47.472;7.850;2023-04-26T09:40:21;96588.28;;;12.73;99.25
32761;BME280;19126;47.472;7.850;2023-04-26T09:42:57;96600.38;;;13.40;95.90
32761;BME280;19126;47.472;7.850;2023-04-26T09:45:25;96600.53;;;13.60;89.96
32761;BME280;19126;47.472;7.850;2023-04-26T09:47:53;96603.72;;;13.84;92.45
32761;BME280;19126;47.472;7.850;2023-04-26T09:50:30;96596.25;;;13.94;92.63
32761;BME280;19126;47.472;7.850;2023-04-26T09:52:58;96603.03;;;14.10;85.90
32761;BME280;19126;47.472;7.850;2023-04-26T09:55:27;96598.13;;;14.69;87.28
32761;BME280;19126;47.472;7.850;2023-04-26T09:57:55;96596.75;;;15.34;87.96
32761;BME280;19126;47.472;7.850;2023-04-26T10:00:26;96595.53;;;15.23;73.34
32761;BME280;19126;47.472;7.850;2023-04-26T10:02:54;96591.88;;;15.04;73.91
32761;BME280;19126;47.472;7.850;2023-04-26T10:05:22;96587.38;;;14.91;77.62
32761;BME280;19126;47.472;7.850;2023-04-26T10:07:51;96590.81;;;14.71;78.62
32761;BME280;19126;47.472;7.850;2023-04-26T10:10:18;96584.28;;;14.60;74.59
32761;BME280;19126;47.472;7.850;2023-04-26T10:12:46;96586.56;;;14.70;71.75
32761;BME280;19126;47.472;7.850;2023-04-26T10:15:14;96591.28;;;14.19;69.86
32761;BME280;19126;47.472;7.850;2023-04-26T10:17:41;96582.34;;;14.27;80.23
32761;BME280;19126;47.472;7.850;2023-04-26T10:20:12;96583.56;;;14.31;80.73
32761;BME280;19126;47.472;7.850;2023-04-26T10:22:45;96585.50;;;14.64;81.05
32761;BME280;19126;47.472;7.850;2023-04-26T10:25:17;96577.97;;;14.68;82.04
32761;BME280;19126;47.472;7.850;2023-04-26T10:27:51;96575.78;;;14.78;80.84
32761;BME280;19126;47.472;7.850;2023-04-26T10:30:22;96575.13;;;14.63;79.12
32761;BME280;19126;47.472;7.850;2023-04-26T10:33:12;96569.50;;;14.86;78.31
32761;BME280;19126;47.472;7.850;2023-04-26T10:36:06;96572.97;;;15.07;75.38
32761;BME280;19126;47.472;7.850;2023-04-26T10:38:36;96569.91;;;15.23;77.32
32761;BME280;19126;47.472;7.850;2023-04-26T10:41:32;96563.59;;;15.24;74.30
32761;BME280;19126;47.472;7.850;2023-04-26T10:44:39;96568.06;;;15.31;74.38
32761;BME280;19126;47.472;7.850;2023-04-26T10:47:19;96573.53;;;15.36;72.14
32761;BME280;19126;47.472;7.850;2023-04-26T10:49:47;96573.16;;;15.26;70.09
32761;BME280;19126;47.472;7.850;2023-04-26T10:52:15;96573.34;;;15.11;68.87
32761;BME280;19126;47.472;7.850;2023-04-26T10:54:47;96579.66;;;14.96;68.85
32761;BME280;19126;47.472;7.850;2023-04-26T10:57:16;96563.59;;;14.71;71.02
32761;BME280;19126;47.472;7.850;2023-04-26T11:00:33;96570.09;;;14.82;71.20
32761;BME280;19126;47.472;7.850;2023-04-26T11:03:05;96572.34;;;14.91;71.85
32761;BME280;19126;47.472;7.850;2023-04-26T11:05:50;96563.81;;;14.89;69.42
32761;BME280;19126;47.472;7.850;2023-04-26T11:08:20;96556.25;;;14.93;70.90
32761;BME280;19126;47.472;7.850;2023-04-26T11:10:52;96553.03;;;14.98;69.58
32761;BME280;19126;47.472;7.850;2023-04-26T11:13:24;96554.84;;;15.17;68.21
32761;BME280;19126;47.472;7.850;2023-04-26T11:16:00;96567.66;;;15.34;63.79
32761;BME280;19126;47.472;7.850;2023-04-26T11:18:29;96565.41;;;15.24;66.37
32761;BME280;19126;47.472;7.850;2023-04-26T11:20:57;96561.16;;;15.16;68.00
32761;BME280;19126;47.472;7.850;2023-04-26T11:23:26;96565.63;;;15.22;69.64
32761;BME280;19126;47.472;7.850;2023-04-26T11:25:57;96556.88;;;15.15;69.04
32761;BME280;19126;47.472;7.850;2023-04-26T11:28:25;96564.22;;;15.00;69.38
32761;BME280;19126;47.472;7.850;2023-04-26T11:30:53;96559.13;;;15.05;70.40
32761;BME280;19126;47.472;7.850;2023-04-26T11:33:25;96560.34;;;15.02;68.33
32761;BME280;19126;47.472;7.850;2023-04-26T11:35:54;96556.47;;;14.98;65.65
32761;BME280;19126;47.472;7.850;2023-04-26T11:38:23;96553.00;;;15.04;68.61
32761;BME280;19126;47.472;7.850;2023-04-26T11:40:56;96553.00;;;15.04;66.86
32761;BME280;19126;47.472;7.850;2023-04-26T11:43:34;96554.41;;;15.14;64.70
32761;BME280;19126;47.472;7.850;2023-04-26T11:46:02;96547.50;;;14.86;62.08
32761;BME280;19126;47.472;7.850;2023-04-26T11:48:30;96549.75;;;14.75;66.57
32761;BME280;19126;47.472;7.850;2023-04-26T11:50:59;96546.84;;;14.57;63.02
32761;BME280;19126;47.472;7.850;2023-04-26T11:53:35;96549.19;;;14.11;63.57
32761;BME280;19126;47.472;7.850;2023-04-26T11:56:04;96559.66;;;13.91;64.82
32761;BME280;19126;47.472;7.850;2023-04-26T11:58:33;96557.25;;;13.96;71.45
32761;BME280;19126;47.472;7.850;2023-04-26T12:01:01;96546.75;;;14.16;70.40
32761;BME280;19126;47.472;7.850;2023-04-26T12:03:30;96550.03;;;14.18;66.48
32761;BME280;19126;47.472;7.850;2023-04-26T12:05:58;96545.41;;;14.54;69.21
32761;BME280;19126;47.472;7.850;2023-04-26T12:08:26;96542.22;;;14.86;70.82
32761;BME280;19126;47.472;7.850;2023-04-26T12:10:58;96538.78;;;14.99;66.31
32761;BME280;19126;47.472;7.850;2023-04-26T12:13:25;96549.53;;;14.84;62.67
32761;BME280;19126;47.472;7.850;2023-04-26T12:15:54;96537.94;;;14.85;62.85
32761;BME280;19126;47.472;7.850;2023-04-26T12:18:30;96541.22;;;14.80;61.46
32761;BME280;19126;47.472;7.850;2023-04-26T12:20:59;96535.44;;;14.49;59.42
32761;BME280;19126;47.472;7.850;2023-04-26T12:23:35;96544.47;;;14.75;61.25
32761;BME280;19126;47.472;7.850;2023-04-26T12:26:04;96535.13;;;15.00;65.44
32761;BME280;19126;47.472;7.850;2023-04-26T12:28:32;96535.31;;;14.98;62.84
32761;BME280;19126;47.472;7.850;2023-04-26T12:31:01;96536.31;;;15.11;62.35
32761;BME280;19126;47.472;7.850;2023-04-26T12:33:29;96543.22;;;15.25;63.23
32761;BME280;19126;47.472;7.850;2023-04-26T12:36:04;96543.59;;;15.42;61.70
32761;BME280;19126;47.472;7.850;2023-04-26T12:38:31;96535.00;;;15.67;65.61
32761;BME280;19126;47.472;7.850;2023-04-26T12:40:58;96533.56;;;15.71;62.30
32761;BME280;19126;47.472;7.850;2023-04-26T12:43:26;96533.56;;;15.64;61.54
32761;BME280;19126;47.472;7.850;2023-04-26T12:45:53;96532.75;;;15.64;63.19
32761;BME280;19126;47.472;7.850;2023-04-26T12:48:22;96543.38;;;15.50;63.01
32761;BME280;19126;47.472;7.850;2023-04-26T12:50:50;96539.34;;;15.34;59.09
32761;BME280;19126;47.472;7.850;2023-04-26T12:53:18;96528.16;;;15.19;62.08
32761;BME280;19126;47.472;7.850;2023-04-26T12:55:45;96537.09;;;15.31;62.01
32761;BME280;19126;47.472;7.850;2023-04-26T12:58:12;96533.63;;;15.37;63.88
32761;BME280;19126;47.472;7.850;2023-04-26T13:00:39;96530.75;;;15.46;60.83
32761;BME280;19126;47.472;7.850;2023-04-26T13:03:07;96523.84;;;15.51;61.29
32761;BME280;19126;47.472;7.850;2023-04-26T13:05:37;96518.28;;;15.66;59.54
32761;BME280;19126;47.472;7.850;2023-04-26T13:08:05;96522.13;;;15.71;59.66
32761;BME280;19126;47.472;7.850;2023-04-26T13:10:33;96523.53;;;15.93;61.15
32761;BME280;19126;47.472;7.850;2023-04-26T13:13:00;96518.47;;;16.24;61.20
32761;BME280;19126;47.472;7.850;2023-04-26T13:15:27;96526.75;;;16.34;59.29
32761;BME280;19126;47.472;7.850;2023-04-26T13:17:55;96517.94;;;16.47;56.17